sensor_id;sensor_type;location;lat;lon;timestamp;pressure;altitude;pressure_sealevel;temperature;humidity
36092;BME280;22147;52.388;13.390;2024-02-28T00:00:25;101049.72;;;1.59;100.00
36092;BME280;22147;52.388;13.390;2024-02-28T00:02:56;101051.91;;;1.62;100.00
36092;BME280;22147;52.388;13.390;2024-02-28T00:05:26;101056.03;;;1.65;100.00
36092;BME280;22147;52.388;13.390;2024-02-28T00:07:56;101055.22;;;1.65;100.00
36092;BME280;22147;52.388;13.390;2024-02-28T00:10:27;101048.13;;;1.63;100.00
36092;BME280;22147;52.388;13.390;2024-02-28T00:12:59;101041.03;;;1.68;100.00
36092;BME280;22147;52.388;13.390;2024-02-28T00:15:29;101040.69;;;1.59;100.00
36092;BME280;22147;52.388;13.390;2024-02-28T00:18:00;101044.00;;;1.61;100.00
36092;BME280;22147;52.388;13.390;2024-02-28T00:20:30;101041.97;;;1.51;100.00
36092;BME280;22147;52.388;13.390;2024-02-28T00:23:01;101044.09;;;1.44;100.00
36092;BME280;22147;52.388;13.390;2024-02-28T00:25:31;101044.72;;;1.51;100.00
36092;BME280;22147;52.388;13.390;2024-02-28T00:28:01;101045.78;;;1.50;100.00
36092;BME280;22147;52.388;13.390;2024-02-28T00:30:32;101046.63;;;1.51;100.00
36092;BME280;22147;52.388;13.390;2024-02-28T00:33:03;101047.94;;;1.48;100.00
36092;BME280;22147;52.388;13.390;2024-02-28T00:35:33;101050.69;;;1.48;100.00
36092;BME280;22147;52.388;13.390;2024-02-28T00:38:04;101056.69;;;1.45;100.00
36092;BME280;22147;52.388;13.390;2024-02-28T00:40:34;101058.38;;;1.46;100.00
36092;BME280;22147;52.388;13.390;2024-02-28T00:43:04;101057.78;;;1.44;100.00
36092;BME280;22147;52.388;13.390;2024-02-28T00:45:35;101056.44;;;1.47;100.00
36092;BME280;22147;52.388;13.390;2024-02-28T00:48:06;101059.22;;;1.52;100.00
36092;BME280;22147;52.388;13.390;2024-02-28T00:50:36;101067.69;;;1.50;100.00
36092;BME280;22147;52.388;13.390;2024-02-28T00:53:06;101057.38;;;1.57;100.00
36092;BME280;22147;52.388;13.390;2024-02-28T00:55:37;101057.03;;;1.54;100.00
36092;BME280;22147;52.388;13.390;2024-02-28T00:58:07;101070.94;;;1.47;100.00
36092;BME280;22147;52.388;13.390;2024-02-28T01:00:37;101073.44;;;1.49;100.00
36092;BME280;22147;52.388;13.390;2024-02-28T01:03:08;101072.88;;;1.47;100.00
36092;BME280;22147;52.388;13.390;2024-02-28T01:05:41;101061.59;;;1.43;100.00
36092;BME280;22147;52.388;13.390;2024-02-28T01:08:12;101060.25;;;1.46;100.00
36092;BME280;22147;52.388;13.390;2024-02-28T01:10:42;101048.22;;;1.47;100.00
36092;BME280;22147;52.388;13.390;2024-02-28T01:13:13;101056.69;;;1.45;100.00
36092;BME280;22147;52.388;13.390;2024-02-28T01:15:44;101057.22;;;1.42;100.00
36092;BME280;22147;52.388;13.390;2024-02-28T01:18:14;101068.19;;;1.42;100.00
36092;BME280;22147;52.388;13.390;2024-02-28T01:20:44;101064.88;;;1.40;100.00
36092;BME280;22147;52.388;13.390;2024-02-28T01:23:14;101064.34;;;1.43;100.00
36092;BME280;22147;52.388;13.390;2024-02-28T01:25:42;101072.34;;;1.50;100.00
36092;BME280;22147;52.388;13.390;2024-02-28T01:28:11;101068.78;;;1.49;100.00
36092;BME280;22147;52.388;13.390;2024-02-28T01:30:41;101065.16;;;1.43;100.00
36092;BME280;22147;52.388;13.390;2024-02-28T01:33:09;101066.25;;;1.42;100.00
36092;BME280;22147;52.388;13.390;2024-02-28T01:35:40;101066.19;;;1.37;100.00
36092;BME280;22147;52.388;13.390;2024-02-28T01:38:10;101075.50;;;1.36;100.00
36092;BME280;22147;52.388;13.390;2024-02-28T01:40:49;101074.97;;;1.39;100.00
36092;BME280;22147;52.388;13.390;2024-02-28T01:43:19;101070.59;;;1.38;100.00
36092;BME280;22147;52.388;13.390;2024-02-28T01:45:50;101063.19;;;1.39;100.00
36092;BME280;22147;52.388;13.390;2024-02-28T01:48:21;101057.47;;;1.40;100.00
36092;BME280;22147;52.388;13.390;2024-02-28T01:50:51;101057.22;;;1.42;100.00
36092;BME280;22147;52.388;13.390;2024-02-28T01:53:22;101062.88;;;1.35;100.00
36092;BME280;22147;52.388;13.390;2024-02-28T01:55:54;101065.63;;;1.35;100.00
36092;BME280;22147;52.388;13.390;2024-02-28T01:58:25;101064.56;;;1.36;100.00
36092;BME280;22147;52.388;13.390;2024-02-28T02:00:56;101063.44;;;1.37;100.00
36092;BME280;22147;52.388;13.390;2024-02-28T02:03:28;101065.69;;;1.40;100.00
36092;BME280;22147;52.388;13.390;2024-02-28T02:05:59;101064.59;;;1.41;100.00
36092;BME280;22147;52.388;13.390;2024-02-28T02:08:30;101054.66;;;1.35;100.00
36092;BME280;22147;52.388;13.390;2024-02-28T02:11:01;101060.47;;;1.39;100.00
36092;BME280;22147;52.388;13.390;2024-02-28T02:13:32;101055.31;;;1.42;100.00
36092;BME280;22147;52.388;13.390;2024-02-28T02:16:03;101047.91;;;1.43;100.00
36092;BME280;22147;52.388;13.390;2024-02-28T02:18:33;101048.63;;;1.33;100.00
36092;BME280;22147;52.388;13.390;2024-02-28T02:21:06;101052.72;;;1.31;100.00
36092;BME280;22147;52.388;13.390;2024-02-28T02:23:40;101061.50;;;1.33;100.00
36092;BME280;22147;52.388;13.390;2024-02-28T02:26:11;101066.97;;;1.33;100.00
36092;BME280;22147;52.388;13.390;2024-02-28T02:28:41;101057.63;;;1.29;100.00
36092;BME280;22147;52.388;13.390;2024-02-28T02:31:13;101063.66;;;1.31;100.00
36092;BME280;22147;52.388;13.390;2024-02-28T02:33:44;101057.94;;;1.32;100.00
36092;BME280;22147;52.388;13.390;2024-02-28T02:36:14;101065.59;;;1.30;100.00
36092;BME280;22147;52.388;13.390;2024-02-28T02:38:44;101078.38;;;1.25;100.00
36092;BME280;22147;52.388;13.390;2024-02-28T02:41:15;101078.94;;;1.27;100.00
36092;BME280;22147;52.388;13.390;2024-02-28T02:43:45;101081.75;;;1.32;100.00
36092;BME280;22147;52.388;13.390;2024-02-28T02:46:15;101092.94;;;1.30;100.00
36092;BME280;22147;52.388;13.390;2024-02-28T02:48:46;101097.59;;;1.30;100.00
36092;BME280;22147;52.388;13.390;2024-02-28T02:51:16;101089.44;;;1.35;100.00
36092;BME280;22147;52.388;13.390;2024-02-28T02:53:48;101094.13;;;1.39;100.00
36092;BME280;22147;52.388;13.390;2024-02-28T02:56:18;101089.69;;;1.33;100.00
36092;BME280;22147;52.388;13.390;2024-02-28T02:58:48;101097.66;;;1.35;100.00
36092;BME280;22147;52.388;13.390;2024-02-28T03:01:18;101087.91;;;1.44;100.00
36092;BME280;22147;52.388;13.390;2024-02-28T03:03:50;101092.50;;;1.38;100.00
36092;BME280;22147;52.388;13.390;2024-02-28T03:06:20;101097.16;;;1.38;100.00
36092;BME280;22147;52.388;13.390;2024-02-28T03:08:54;101093.50;;;1.32;100.00
36092;BME280;22147;52.388;13.390;2024-02-28T03:11:24;101089.06;;;1.26;100.00
36092;BME280;22147;52.388;13.390;2024-02-28T03:13:54;101084.88;;;1.18;100.00
36092;BME280;22147;52.388;13.390;2024-02-28T03:16:25;101091.13;;;1.14;100.00
36092;BME280;22147;52.388;13.390;2024-02-28T03:18:53;101084.28;;;1.16;100.00
36092;BME280;22147;52.388;13.390;2024-02-28T03:21:24;101082.66;;;1.15;100.00
36092;BME280;22147;52.388;13.390;2024-02-28T03:23:52;101097.16;;;1.16;100.00
36092;BME280;22147;52.388;13.390;2024-02-28T03:26:21;101104.78;;;1.14;100.00
36092;BME280;22147;52.388;13.390;2024-02-28T03:28:49;101102.00;;;1.09;100.00
36092;BME280;22147;52.388;13.390;2024-02-28T03:31:17;101103.41;;;1.11;100.00
36092;BME280;22147;52.388;13.390;2024-02-28T03:33:46;101111.13;;;1.14;100.00
36092;BME280;22147;52.388;13.390;2024-02-28T03:36:14;101110.03;;;1.15;100.00
36092;BME280;22147;52.388;13.390;2024-02-28T03:38:43;101111.41;;;1.18;100.00
36092;BME280;22147;52.388;13.390;2024-02-28T03:41:11;101113.00;;;1.14;100.00
36092;BME280;22147;52.388;13.390;2024-02-28T03:43:39;101109.41;;;1.08;100.00
36092;BME280;22147;52.388;13.390;2024-02-28T03:46:08;101102.84;;;1.09;100.00
36092;BME280;22147;52.388;13.390;2024-02-28T03:48:36;101098.13;;;1.05;100.00
36092;BME280;22147;52.388;13.390;2024-02-28T03:51:05;101099.47;;;1.02;100.00
36092;BME280;22147;52.388;13.390;2024-02-28T03:53:33;101103.03;;;1.02;100.00
36092;BME280;22147;52.388;13.390;2024-02-28T03:56:02;101103.28;;;1.01;100.00
36092;BME280;22147;52.388;13.390;2024-02-28T03:58:30;101104.66;;;1.04;100.00
36092;BME280;22147;52.388;13.390;2024-02-28T04:00:58;101109.69;;;1.12;100.00
36092;BME280;22147;52.388;13.390;2024-02-28T04:03:27;101110.22;;;1.09;100.00
36092;BME280;22147;52.388;13.390;2024-02-28T04:05:55;101114.22;;;1.01;100.00
36092;BME280;22147;52.388;13.390;2024-02-28T04:08:24;101115.13;;;1.07;100.00
36092;BME280;22147;52.388;13.390;2024-02-28T04:10:52;101114.47;;;0.99;100.00
36092;BME280;22147;52.388;13.390;2024-02-28T04:13:20;101111.47;;;1.01;100.00
36092;BME280;22147;52.388;13.390;2024-02-28T04:15:49;101123.56;;;1.05;100.00
36092;BME280;22147;52.388;13.390;2024-02-28T04:18:17;101121.59;;;1.00;100.00
36092;BME280;22147;52.388;13.390;2024-02-28T04:20:46;101133.44;;;1.06;100.00
36092;BME280;22147;52.388;13.390;2024-02-28T04:23:14;101128.78;;;1.07;100.00
36092;BME280;22147;52.388;13.390;2024-02-28T04:25:42;101127.44;;;1.09;100.00
36092;BME280;22147;52.388;13.390;2024-02-28T04:28:11;101130.44;;;1.08;100.00
36092;BME280;22147;52.388;13.390;2024-02-28T04:30:39;101124.22;;;1.12;100.00
36092;BME280;22147;52.388;13.390;2024-02-28T04:33:08;101121.09;;;1.04;100.00
36092;BME280;22147;52.388;13.390;2024-02-28T04:35:36;101123.25;;;1.01;100.00
36092;BME280;22147;52.388;13.390;2024-02-28T04:38:05;101124.66;;;1.04;100.00
36092;BME280;22147;52.388;13.390;2024-02-28T04:40:33;101128.78;;;1.07;100.00
36092;BME280;22147;52.388;13.390;2024-02-28T04:43:01;101133.63;;;0.99;100.00
36092;BME280;22147;52.388;13.390;2024-02-28T04:45:30;101137.25;;;1.05;100.00
36092;BME280;22147;52.388;13.390;2024-02-28T04:47:58;101142.41;;;1.01;100.00
36092;BME280;22147;52.388;13.390;2024-02-28T04:50:27;101149.53;;;1.02;100.00
36092;BME280;22147;52.388;13.390;2024-02-28T04:52:55;101153.66;;;1.05;100.00
36092;BME280;22147;52.388;13.390;2024-02-28T04:55:24;101159.97;;;1.06;100.00
36092;BME280;22147;52.388;13.390;2024-02-28T04:57:52;101160.91;;;1.16;100.00
36092;BME280;22147;52.388;13.390;2024-02-28T05:00:20;101161.63;;;1.07;100.00
36092;BME280;22147;52.388;13.390;2024-02-28T05:02:49;101164.03;;;1.03;100.00
36092;BME280;22147;52.388;13.390;2024-02-28T05:05:17;101170.28;;;0.98;100.00
36092;BME280;22147;52.388;13.390;2024-02-28T05:07:46;101173.34;;;1.02;100.00
36092;BME280;22147;52.388;13.390;2024-02-28T05:10:14;101169.06;;;1.11;100.00
36092;BME280;22147;52.388;13.390;2024-02-28T05:12:42;101176.69;;;1.09;100.00
36092;BME280;22147;52.388;13.390;2024-02-28T05:15:11;101185.09;;;1.02;100.00
36092;BME280;22147;52.388;13.390;2024-02-28T05:17:39;101186.50;;;1.05;100.00
36092;BME280;22147;52.388;13.390;2024-02-28T05:20:10;101192.34;;;1.14;100.00
36092;BME280;22147;52.388;13.390;2024-02-28T05:22:40;101195.28;;;1.07;100.00
36092;BME280;22147;52.388;13.390;2024-02-28T05:25:12;101203.66;;;1.00;100.00
36092;BME280;22147;52.388;13.390;2024-02-28T05:27:42;101195.06;;;0.92;100.00
36092;BME280;22147;52.388;13.390;2024-02-28T05:30:13;101191.19;;;0.88;100.00
36092;BME280;22147;52.388;13.390;2024-02-28T05:32:43;101197.22;;;0.90;100.00
36092;BME280;22147;52.388;13.390;2024-02-28T05:35:13;101196.91;;;0.86;100.00
36092;BME280;22147;52.388;13.390;2024-02-28T05:37:45;101193.09;;;0.87;100.00
36092;BME280;22147;52.388;13.390;2024-02-28T05:40:16;101190.38;;;0.87;100.00
36092;BME280;22147;52.388;13.390;2024-02-28T05:42:46;101198.22;;;0.84;100.00
36092;BME280;22147;52.388;13.390;2024-02-28T05:45:17;101206.63;;;0.77;100.00
36092;BME280;22147;52.388;13.390;2024-02-28T05:47:47;101211.34;;;0.81;100.00
36092;BME280;22147;52.388;13.390;2024-02-28T05:50:17;101204.72;;;0.77;100.00
36092;BME280;22147;52.388;13.390;2024-02-28T05:52:47;101205.28;;;0.79;100.00
36092;BME280;22147;52.388;13.390;2024-02-28T05:55:18;101203.13;;;0.81;100.00
36092;BME280;22147;52.388;13.390;2024-02-28T05:57:48;101211.16;;;0.88;100.00
36092;BME280;22147;52.388;13.390;2024-02-28T06:00:18;101218.88;;;0.91;100.00
36092;BME280;22147;52.388;13.390;2024-02-28T06:02:49;101219.69;;;0.92;100.00
36092;BME280;22147;52.388;13.390;2024-02-28T06:05:19;101225.66;;;0.89;100.00
36092;BME280;22147;52.388;13.390;2024-02-28T06:07:49;101226.75;;;0.88;100.00
36092;BME280;22147;52.388;13.390;2024-02-28T06:10:21;101226.16;;;0.86;100.00
36092;BME280;22147;52.388;13.390;2024-02-28T06:12:52;101229.47;;;0.88;100.00
36092;BME280;22147;52.388;13.390;2024-02-28T06:15:22;101239.50;;;0.82;100.00
36092;BME280;22147;52.388;13.390;2024-02-28T06:17:52;101254.50;;;0.79;100.00
36092;BME280;22147;52.388;13.390;2024-02-28T06:20:22;101259.16;;;0.79;100.00
36092;BME280;22147;52.388;13.390;2024-02-28T06:22:53;101262.78;;;0.85;100.00
36092;BME280;22147;52.388;13.390;2024-02-28T06:25:23;101255.50;;;0.90;100.00
36092;BME280;22147;52.388;13.390;2024-02-28T06:27:54;101262.94;;;0.95;100.00
36092;BME280;22147;52.388;13.390;2024-02-28T06:30:25;101270.84;;;0.91;100.00
36092;BME280;22147;52.388;13.390;2024-02-28T06:32:58;101264.78;;;0.89;100.00
36092;BME280;22147;52.388;13.390;2024-02-28T06:35:29;101272.06;;;0.84;100.00
36092;BME280;22147;52.388;13.390;2024-02-28T06:37:59;101272.00;;;0.78;100.00
36092;BME280;22147;52.388;13.390;2024-02-28T06:40:30;101269.34;;;0.84;100.00
36092;BME280;22147;52.388;13.390;2024-02-28T06:43:03;101275.06;;;0.82;100.00
36092;BME280;22147;52.388;13.390;2024-02-28T06:45:34;101282.50;;;0.87;100.00
36092;BME280;22147;52.388;13.390;2024-02-28T06:48:07;101268.50;;;1.00;100.00
36092;BME280;22147;52.388;13.390;2024-02-28T06:50:36;101279.94;;;0.97;100.00
36092;BME280;22147;52.388;13.390;2024-02-28T06:53:06;101277.13;;;0.92;100.00
36092;BME280;22147;52.388;13.390;2024-02-28T06:55:36;101278.69;;;0.88;100.00
36092;BME280;22147;52.388;13.390;2024-02-28T06:58:07;101279.75;;;0.87;100.00
36092;BME280;22147;52.388;13.390;2024-02-28T07:00:37;101284.41;;;0.86;100.00
36092;BME280;22147;52.388;13.390;2024-02-28T07:03:07;101290.13;;;0.85;100.00
36092;BME280;22147;52.388;13.390;2024-02-28T07:05:37;101289.81;;;0.81;100.00
36092;BME280;22147;52.388;13.390;2024-02-28T07:08:08;101293.03;;;0.78;100.00
36092;BME280;22147;52.388;13.390;2024-02-28T07:10:40;101295.47;;;0.74;100.00
36092;BME280;22147;52.388;13.390;2024-02-28T07:13:13;101295.53;;;0.79;100.00
36092;BME280;22147;52.388;13.390;2024-02-28T07:15:43;101291.97;;;0.79;100.00
36092;BME280;22147;52.388;13.390;2024-02-28T07:18:14;101293.44;;;0.87;100.00
36092;BME280;22147;52.388;13.390;2024-02-28T07:20:45;101294.72;;;0.79;100.00
36092;BME280;22147;52.388;13.390;2024-02-28T07:23:15;101300.00;;;0.86;100.00
36092;BME280;22147;52.388;13.390;2024-02-28T07:25:45;101302.22;;;0.89;100.00
36092;BME280;22147;52.388;13.390;2024-02-28T07:28:16;101306.22;;;0.81;100.00
36092;BME280;22147;52.388;13.390;2024-02-28T07:30:46;101296.69;;;0.84;100.00
36092;BME280;22147;52.388;13.390;2024-02-28T07:33:18;101296.19;;;0.87;100.00
36092;BME280;22147;52.388;13.390;2024-02-28T07:35:52;101297.84;;;0.88;100.00
36092;BME280;22147;52.388;13.390;2024-02-28T07:38:22;101297.75;;;0.82;100.00
36092;BME280;22147;52.388;13.390;2024-02-28T07:40:57;101304.31;;;0.81;100.00
36092;BME280;22147;52.388;13.390;2024-02-28T07:43:28;101308.97;;;0.81;100.00
36092;BME280;22147;52.388;13.390;2024-02-28T07:46:06;101298.34;;;0.85;100.00
36092;BME280;22147;52.388;13.390;2024-02-28T07:48:40;101308.22;;;0.86;100.00
36092;BME280;22147;52.388;13.390;2024-02-28T07:51:11;101304.13;;;0.88;100.00
36092;BME280;22147;52.388;13.390;2024-02-28T07:53:41;101310.38;;;0.84;100.00
36092;BME280;22147;52.388;13.390;2024-02-28T07:56:19;101315.19;;;0.93;100.00
36092;BME280;22147;52.388;13.390;2024-02-28T07:58:50;101321.66;;;0.87;100.00
36092;BME280;22147;52.388;13.390;2024-02-28T08:01:20;101321.88;;;0.86;100.00
36092;BME280;22147;52.388;13.390;2024-02-28T08:03:52;101329.75;;;0.82;100.00
36092;BME280;22147;52.388;13.390;2024-02-28T08:06:24;101330.44;;;0.89;100.00
36092;BME280;22147;52.388;13.390;2024-02-28T08:08:55;101331.72;;;0.87;100.00
36092;BME280;22147;52.388;13.390;2024-02-28T08:11:25;101333.41;;;0.88;100.00
36092;BME280;22147;52.388;13.390;2024-02-28T08:13:55;101338.28;;;0.86;100.00
36092;BME280;22147;52.388;13.390;2024-02-28T08:16:26;101344.34;;;0.88;100.00
36092;BME280;22147;52.388;13.390;2024-02-28T08:19:01;101342.53;;;0.93;100.00
36092;BME280;22147;52.388;13.390;2024-02-28T08:21:31;101348.47;;;0.90;100.00
36092;BME280;22147;52.388;13.390;2024-02-28T08:23:59;101357.38;;;0.97;100.00
36092;BME280;22147;52.388;13.390;2024-02-28T08:26:29;101350.97;;;0.92;100.00
36092;BME280;22147;52.388;13.390;2024-02-28T08:29:03;101355.63;;;0.91;100.00
36092;BME280;22147;52.388;13.390;2024-02-28T08:31:33;101354.13;;;0.84;100.00
36092;BME280;22147;52.388;13.390;2024-02-28T08:34:09;101356.19;;;0.76;100.00
36092;BME280;22147;52.388;13.390;2024-02-28T08:36:39;101364.41;;;0.76;100.00
36092;BME280;22147;52.388;13.390;2024-02-28T08:39:10;101370.84;;;0.70;100.00
36092;BME280;22147;52.388;13.390;2024-02-28T08:41:41;101374.66;;;0.69;100.00
36092;BME280;22147;52.388;13.390;2024-02-28T08:44:11;101383.66;;;0.70;100.00
36092;BME280;22147;52.388;13.390;2024-02-28T08:46:41;101370.16;;;0.63;100.00
36092;BME280;22147;52.388;13.390;2024-02-28T08:49:13;101366.22;;;0.71;100.00
36092;BME280;22147;52.388;13.390;2024-02-28T08:51:43;101372.06;;;0.63;100.00
36092;BME280;22147;52.388;13.390;2024-02-28T08:54:17;101379.69;;;0.60;100.00
36092;BME280;22147;52.388;13.390;2024-02-28T08:56:47;101372.00;;;0.57;100.00
36092;BME280;22147;52.388;13.390;2024-02-28T08:59:28;101375.16;;;0.66;100.00
36092;BME280;22147;52.388;13.390;2024-02-28T09:01:58;101376.47;;;0.64;100.00
36092;BME280;22147;52.388;13.390;2024-02-28T09:04:28;101375.31;;;0.59;100.00
36092;BME280;22147;52.388;13.390;2024-02-28T09:06:58;101380.19;;;0.57;100.00
36092;BME280;22147;52.388;13.390;2024-02-28T09:09:29;101374.53;;;0.47;100.00
36092;BME280;22147;52.388;13.390;2024-02-28T09:12:01;101362.84;;;0.52;100.00
36092;BME280;22147;52.388;13.390;2024-02-28T09:14:33;101365.09;;;0.55;100.00
36092;BME280;22147;52.388;13.390;2024-02-28T09:17:03;101358.06;;;0.76;100.00
36092;BME280;22147;52.388;13.390;2024-02-28T09:19:33;101366.22;;;0.71;100.00
36092;BME280;22147;52.388;13.390;2024-02-28T09:22:04;101373.09;;;0.73;100.00
36092;BME280;22147;52.388;13.390;2024-02-28T09:24:34;101368.34;;;0.69;100.00
36092;BME280;22147;52.388;13.390;2024-02-28T09:27:07;101369.19;;;0.69;100.00
36092;BME280;22147;52.388;13.390;2024-02-28T09:29:36;101364.06;;;0.73;100.00
36092;BME280;22147;52.388;13.390;2024-02-28T09:32:06;101371.28;;;0.79;100.00
36092;BME280;22147;52.388;13.390;2024-02-28T09:34:37;101371.09;;;0.86;100.00
36092;BME280;22147;52.388;13.390;2024-02-28T09:37:07;101368.22;;;0.92;100.00
36092;BME280;22147;52.388;13.390;2024-02-28T09:39:38;101382.22;;;0.96;100.00
36092;BME280;22147;52.388;13.390;2024-02-28T09:42:10;101375.66;;;0.80;100.00
36092;BME280;22147;52.388;13.390;2024-02-28T09:44:40;101376.06;;;0.89;100.00
36092;BME280;22147;52.388;13.390;2024-02-28T09:47:11;101378.09;;;0.93;100.00
36092;BME280;22147;52.388;13.390;2024-02-28T09:49:42;101375.44;;;0.98;100.00
36092;BME280;22147;52.388;13.390;2024-02-28T09:52:12;101387.94;;;0.94;100.00
36092;BME280;22147;52.388;13.390;2024-02-28T09:54:42;101387.34;;;0.92;100.00
36092;BME280;22147;52.388;13.390;2024-02-28T09:57:15;101394.56;;;0.98;100.00
36092;BME280;22147;52.388;13.390;2024-02-28T09:59:46;101393.66;;;0.93;100.00
36092;BME280;22147;52.388;13.390;2024-02-28T10:02:25;101404.59;;;0.93;100.00
36092;BME280;22147;52.388;13.390;2024-02-28T10:04:56;101402.44;;;0.95;100.00
36092;BME280;22147;52.388;13.390;2024-02-28T10:07:28;101396.81;;;1.01;100.00
36092;BME280;22147;52.388;13.390;2024-02-28T10:09:56;101407.66;;;0.96;100.00
36092;BME280;22147;52.388;13.390;2024-02-28T10:12:26;101407.31;;;0.93;100.00
36092;BME280;22147;52.388;13.390;2024-02-28T10:14:56;101405.09;;;0.90;100.00
36092;BME280;22147;52.388;13.390;2024-02-28T10:17:26;101406.91;;;1.01;100.00
36092;BME280;22147;52.388;13.390;2024-02-28T10:19:59;101409.84;;;1.11;100.00
36092;BME280;22147;52.388;13.390;2024-02-28T10:22:36;101418.13;;;1.16;100.00
36092;BME280;22147;52.388;13.390;2024-02-28T10:25:05;101414.91;;;1.19;100.00
36092;BME280;22147;52.388;13.390;2024-02-28T10:27:36;101419.63;;;1.24;100.00
36092;BME280;22147;52.388;13.390;2024-02-28T10:30:07;101418.88;;;1.29;100.00
36092;BME280;22147;52.388;13.390;2024-02-28T10:32:49;101419.63;;;1.24;100.00
36092;BME280;22147;52.388;13.390;2024-02-28T10:35:22;101425.34;;;1.22;100.00
36092;BME280;22147;52.388;13.390;2024-02-28T10:37:55;101429.81;;;1.29;100.00
36092;BME280;22147;52.388;13.390;2024-02-28T10:40:28;101426.59;;;1.32;100.00
36092;BME280;22147;52.388;13.390;2024-02-28T10:42:59;101434.47;;;1.45;100.00
36092;BME280;22147;52.388;13.390;2024-02-28T10:45:32;101431.38;;;1.41;100.00
36092;BME280;22147;52.388;13.390;2024-02-28T10:48:27;101432.81;;;1.44;100.00
36092;BME280;22147;52.388;13.390;2024-02-28T10:51:00;101430.91;;;1.45;100.00
36092;BME280;22147;52.388;13.390;2024-02-28T10:53:41;101434.28;;;1.52;100.00
36092;BME280;22147;52.388;13.390;2024-02-28T10:56:16;101433.47;;;1.51;100.00
36092;BME280;22147;52.388;13.390;2024-02-28T10:58:57;101430.66;;;1.63;100.00
36092;BME280;22147;52.388;13.390;2024-02-28T11:01:29;101433.44;;;1.68;100.00
36092;BME280;22147;52.388;13.390;2024-02-28T11:04:00;101437.59;;;1.71;100.00
36092;BME280;22147;52.388;13.390;2024-02-28T11:06:31;101444.75;;;1.55;100.00
36092;BME280;22147;52.388;13.390;2024-02-28T11:09:03;101441.16;;;1.54;100.00
36092;BME280;22147;52.388;13.390;2024-02-28T11:11:33;101443.31;;;1.52;100.00
36092;BME280;22147;52.388;13.390;2024-02-28T11:14:04;101438.94;;;1.51;100.00
36092;BME280;22147;52.388;13.390;2024-02-28T11:16:34;101440.34;;;1.54;100.00
36092;BME280;22147;52.388;13.390;2024-02-28T11:19:06;101438.13;;;1.51;100.00
36092;BME280;22147;52.388;13.390;2024-02-28T11:21:37;101437.53;;;1.49;100.00
36092;BME280;22147;52.388;13.390;2024-02-28T11:24:13;101442.16;;;1.48;100.00
36092;BME280;22147;52.388;13.390;2024-02-28T11:26:43;101440.09;;;1.55;100.00
36092;BME280;22147;52.388;13.390;2024-02-28T11:29:13;101444.06;;;1.65;100.00
36092;BME280;22147;52.388;13.390;2024-02-28T11:31:43;101433.09;;;1.65;100.00
36092;BME280;22147;52.388;13.390;2024-02-28T11:34:14;101431.47;;;1.63;100.00
36092;BME280;22147;52.388;13.390;2024-02-28T11:36:50;101444.56;;;1.61;100.00
36092;BME280;22147;52.388;13.390;2024-02-28T11:39:23;101449.72;;;1.58;100.00
36092;BME280;22147;52.388;13.390;2024-02-28T11:41:55;101443.47;;;1.62;100.00
36092;BME280;22147;52.388;13.390;2024-02-28T11:44:25;101444.56;;;1.61;100.00
36092;BME280;22147;52.388;13.390;2024-02-28T11:46:55;101448.47;;;1.66;100.00
36092;BME280;22147;52.388;13.390;2024-02-28T11:49:26;101454.44;;;1.62;100.00
36092;BME280;22147;52.388;13.390;2024-02-28T11:51:57;101452.19;;;1.76;100.00
36092;BME280;22147;52.388;13.390;2024-02-28T11:54:27;101458.50;;;1.77;100.00
36092;BME280;22147;52.388;13.390;2024-02-28T11:56:58;101457.81;;;1.87;100.00
36092;BME280;22147;52.388;13.390;2024-02-28T11:59:29;101457.72;;;1.81;100.00
36092;BME280;22147;52.388;13.390;2024-02-28T12:01:59;101460.06;;;1.73;100.00
36092;BME280;22147;52.388;13.390;2024-02-28T12:04:30;101460.50;;;1.65;100.00
36092;BME280;22147;52.388;13.390;2024-02-28T12:06:58;101466.56;;;1.67;100.00
36092;BME280;22147;52.388;13.390;2024-02-28T12:09:27;101467.53;;;1.77;100.00
36092;BME280;22147;52.388;13.390;2024-02-28T12:12:12;101467.53;;;1.77;100.00
36092;BME280;22147;52.388;13.390;2024-02-28T12:14:44;101469.78;;;1.80;100.00
36092;BME280;22147;52.388;13.390;2024-02-28T12:17:16;101452.34;;;1.87;100.00
36092;BME280;22147;52.388;13.390;2024-02-28T12:19:46;101460.81;;;1.85;100.00
36092;BME280;22147;52.388;13.390;2024-02-28T12:22:16;101458.66;;;1.87;100.00
36092;BME280;22147;52.388;13.390;2024-02-28T12:24:46;101466.88;;;1.87;100.00
36092;BME280;22147;52.388;13.390;2024-02-28T12:27:16;101469.78;;;1.80;100.00
36092;BME280;22147;52.388;13.390;2024-02-28T12:29:46;101461.66;;;1.69;100.00
36092;BME280;22147;52.388;13.390;2024-02-28T12:32:16;101468.09;;;1.79;100.00
36092;BME280;22147;52.388;13.390;2024-02-28T12:34:47;101454.13;;;1.98;100.00
36092;BME280;22147;52.388;13.390;2024-02-28T12:37:17;101454.53;;;2.07;100.00
36092;BME280;22147;52.388;13.390;2024-02-28T12:39:47;101461.31;;;2.21;100.00
36092;BME280;22147;52.388;13.390;2024-02-28T12:42:18;101461.72;;;2.13;100.00
36092;BME280;22147;52.388;13.390;2024-02-28T12:44:48;101469.75;;;2.19;100.00
36092;BME280;22147;52.388;13.390;2024-02-28T12:47:18;101469.38;;;2.11;100.00
36092;BME280;22147;52.388;13.390;2024-02-28T12:49:48;101466.50;;;2.00;100.00
36092;BME280;22147;52.388;13.390;2024-02-28T12:52:17;101467.75;;;2.10;100.00
36092;BME280;22147;52.388;13.390;2024-02-28T12:54:47;101471.91;;;1.95;100.00
36092;BME280;22147;52.388;13.390;2024-02-28T12:57:17;101464.94;;;1.88;100.00